sensor_id;sensor_type;location;lat;lon;timestamp;P1;durP1;ratioP1;P2;durP2;ratioP2
23730;SDS011;12046;44.702;10.622;2023-01-28T08:35:21;21.20;;;13.98;;
23730;SDS011;12046;44.702;10.622;2023-01-28T08:37:48;23.40;;;14.77;;
23730;SDS011;12046;44.702;10.622;2023-01-28T08:40:14;21.98;;;14.95;;
23730;SDS011;12046;44.702;10.622;2023-01-28T08:42:45;26.58;;;16.27;;
23730;SDS011;12046;44.702;10.622;2023-01-28T08:45:13;25.42;;;16.48;;
23730;SDS011;12046;44.702;10.622;2023-01-28T08:47:55;22.90;;;14.60;;
23730;SDS011;12046;44.702;10.622;2023-01-28T08:50:40;22.00;;;14.15;;
23730;SDS011;12046;44.702;10.622;2023-01-28T08:53:08;21.63;;;14.15;;
23730;SDS011;12046;44.702;10.622;2023-01-28T08:55:38;24.02;;;14.95;;
23730;SDS011;12046;44.702;10.622;2023-01-28T08:58:04;22.67;;;14.82;;
23730;SDS011;12046;44.702;10.622;2023-01-28T09:00:32;18.60;;;13.27;;
23730;SDS011;12046;44.702;10.622;2023-01-28T09:03:14;23.23;;;14.75;;
23730;SDS011;12046;44.702;10.622;2023-01-28T09:08:10;24.65;;;15.63;;
23730;SDS011;12046;44.702;10.622;2023-01-28T09:10:37;18.50;;;13.40;;
23730;SDS011;12046;44.702;10.622;2023-01-28T09:13:06;21.85;;;14.10;;
23730;SDS011;12046;44.702;10.622;2023-01-28T09:15:33;19.63;;;13.35;;
23730;SDS011;12046;44.702;10.622;2023-01-28T09:18:00;19.70;;;13.00;;
23730;SDS011;12046;44.702;10.622;2023-01-28T09:20:26;19.08;;;13.43;;
23730;SDS011;12046;44.702;10.622;2023-01-28T09:22:52;19.45;;;12.65;;
23730;SDS011;12046;44.702;10.622;2023-01-28T09:25:20;19.52;;;12.43;;
23730;SDS011;12046;44.702;10.622;2023-01-28T09:27:46;21.80;;;14.02;;
23730;SDS011;12046;44.702;10.622;2023-01-28T09:30:12;19.33;;;12.82;;
23730;SDS011;12046;44.702;10.622;2023-01-28T09:32:38;20.08;;;12.77;;
23730;SDS011;12046;44.702;10.622;2023-01-28T09:35:04;19.45;;;13.32;;
23730;SDS011;12046;44.702;10.622;2023-01-28T09:37:31;20.17;;;13.25;;
23730;SDS011;12046;44.702;10.622;2023-01-28T09:39:56;17.17;;;13.60;;
23730;SDS011;12046;44.702;10.622;2023-01-28T09:45:18;19.45;;;14.20;;
23730;SDS011;12046;44.702;10.622;2023-01-28T09:48:02;17.08;;;13.80;;
23730;SDS011;12046;44.702;10.622;2023-01-28T09:50:34;19.88;;;14.98;;
23730;SDS011;12046;44.702;10.622;2023-01-28T09:53:07;17.00;;;14.00;;
23730;SDS011;12046;44.702;10.622;2023-01-28T09:55:57;17.00;;;13.65;;
23730;SDS011;12046;44.702;10.622;2023-01-28T09:58:49;15.38;;;13.70;;
23730;SDS011;12046;44.702;10.622;2023-01-28T10:01:37;15.85;;;14.13;;
23730;SDS011;12046;44.702;10.622;2023-01-28T10:04:14;16.90;;;15.10;;
23730;SDS011;12046;44.702;10.622;2023-01-28T10:11:57;17.65;;;14.63;;
23730;SDS011;12046;44.702;10.622;2023-01-28T10:20:02;14.82;;;13.32;;
23730;SDS011;12046;44.702;10.622;2023-01-28T10:22:31;14.48;;;13.00;;
23730;SDS011;12046;44.702;10.622;2023-01-28T10:25:02;14.85;;;13.25;;
23730;SDS011;12046;44.702;10.622;2023-01-28T10:27:38;15.50;;;13.20;;
23730;SDS011;12046;44.702;10.622;2023-01-28T10:33:07;16.75;;;13.60;;
23730;SDS011;12046;44.702;10.622;2023-01-28T10:35:44;14.38;;;12.40;;
23730;SDS011;12046;44.702;10.622;2023-01-28T12:32:43;21.05;;;17.02;;
23730;SDS011;12046;44.702;10.622;2023-01-28T12:46:01;19.17;;;17.38;;
23730;SDS011;12046;44.702;10.622;2023-01-28T12:51:41;20.08;;;18.08;;
23730;SDS011;12046;44.702;10.622;2023-01-28T12:54:58;18.95;;;17.05;;
23730;SDS011;12046;44.702;10.622;2023-01-28T12:57:26;18.13;;;15.07;;
23730;SDS011;12046;44.702;10.622;2023-01-28T13:05:49;19.73;;;17.30;;
23730;SDS011;12046;44.702;10.622;2023-01-28T13:08:25;22.05;;;18.75;;
23730;SDS011;12046;44.702;10.622;2023-01-28T13:10:53;19.00;;;17.00;;
23730;SDS011;12046;44.702;10.622;2023-01-28T13:13:34;18.33;;;16.50;;
23730;SDS011;12046;44.702;10.622;2023-01-28T13:16:07;18.25;;;16.40;;
23730;SDS011;12046;44.702;10.622;2023-01-28T13:26:28;16.10;;;14.40;;
23730;SDS011;12046;44.702;10.622;2023-01-28T13:29:14;15.43;;;13.82;;
23730;SDS011;12046;44.702;10.622;2023-01-28T13:31:53;16.23;;;14.27;;
23730;SDS011;12046;44.702;10.622;2023-01-28T13:34:40;17.27;;;15.43;;
23730;SDS011;12046;44.702;10.622;2023-01-28T13:43:01;17.58;;;15.77;;
23730;SDS011;12046;44.702;10.622;2023-01-28T13:45:31;18.23;;;16.23;;
23730;SDS011;12046;44.702;10.622;2023-01-28T14:19:50;23.38;;;17.85;;
23730;SDS011;12046;44.702;10.622;2023-01-28T14:22:18;20.52;;;14.73;;
23730;SDS011;12046;44.702;10.622;2023-01-28T14:24:45;21.90;;;15.80;;
23730;SDS011;12046;44.702;10.622;2023-01-28T14:27:23;20.45;;;15.20;;
23730;SDS011;12046;44.702;10.622;2023-01-28T14:32:50;21.25;;;16.40;;
23730;SDS011;12046;44.702;10.622;2023-01-28T14:35:21;19.98;;;15.40;;
23730;SDS011;12046;44.702;10.622;2023-01-28T14:37:55;20.58;;;15.63;;
23730;SDS011;12046;44.702;10.622;2023-01-28T14:40:22;22.02;;;15.48;;
23730;SDS011;12046;44.702;10.622;2023-01-28T14:42:51;24.92;;;17.13;;
23730;SDS011;12046;44.702;10.622;2023-01-28T14:51:10;23.15;;;17.80;;
23730;SDS011;12046;44.702;10.622;2023-01-28T14:53:55;22.05;;;15.75;;
23730;SDS011;12046;44.702;10.622;2023-01-28T15:04:47;18.90;;;15.40;;
23730;SDS011;12046;44.702;10.622;2023-01-28T15:07:15;20.60;;;15.80;;
23730;SDS011;12046;44.702;10.622;2023-01-28T15:09:41;22.05;;;18.25;;
23730;SDS011;12046;44.702;10.622;2023-01-28T15:12:07;25.45;;;17.67;;
23730;SDS011;12046;44.702;10.622;2023-01-28T15:14:34;25.92;;;17.77;;
23730;SDS011;12046;44.702;10.622;2023-01-28T15:17:00;23.17;;;17.30;;
23730;SDS011;12046;44.702;10.622;2023-01-28T15:19:31;23.95;;;16.25;;
23730;SDS011;12046;44.702;10.622;2023-01-28T15:22:00;23.95;;;17.25;;
23730;SDS011;12046;44.702;10.622;2023-01-28T15:24:31;21.42;;;16.17;;
23730;SDS011;12046;44.702;10.622;2023-01-28T15:26:59;23.45;;;15.95;;
23730;SDS011;12046;44.702;10.622;2023-01-28T15:29:29;22.80;;;16.70;;
23730;SDS011;12046;44.702;10.622;2023-01-28T15:32:01;20.88;;;16.40;;
23730;SDS011;12046;44.702;10.622;2023-01-28T15:34:30;24.33;;;18.05;;
23730;SDS011;12046;44.702;10.622;2023-01-28T15:36:57;25.15;;;16.48;;
23730;SDS011;12046;44.702;10.622;2023-01-28T15:39:24;26.52;;;16.52;;
23730;SDS011;12046;44.702;10.622;2023-01-28T15:41:56;24.85;;;16.33;;
23730;SDS011;12046;44.702;10.622;2023-01-28T15:44:38;22.42;;;15.75;;
23730;SDS011;12046;44.702;10.622;2023-01-28T15:50:17;25.70;;;16.55;;
23730;SDS011;12046;44.702;10.622;2023-01-28T15:52:48;27.00;;;18.02;;
23730;SDS011;12046;44.702;10.622;2023-01-28T16:22:06;19.70;;;13.68;;
23730;SDS011;12046;44.702;10.622;2023-01-28T16:24:34;19.92;;;13.82;;
23730;SDS011;12046;44.702;10.622;2023-01-28T16:29:35;20.08;;;13.63;;
23730;SDS011;12046;44.702;10.622;2023-01-28T16:32:23;22.52;;;14.35;;
23730;SDS011;12046;44.702;10.622;2023-01-28T16:35:11;30.58;;;17.95;;
23730;SDS011;12046;44.702;10.622;2023-01-28T16:48:07;24.73;;;15.95;;
23730;SDS011;12046;44.702;10.622;2023-01-28T17:05:58;22.50;;;14.35;;
23730;SDS011;12046;44.702;10.622;2023-01-28T17:08:24;23.58;;;14.88;;
23730;SDS011;12046;44.702;10.622;2023-01-28T17:10:53;23.40;;;15.38;;
23730;SDS011;12046;44.702;10.622;2023-01-28T17:13:19;24.42;;;16.50;;
23730;SDS011;12046;44.702;10.622;2023-01-28T17:15:48;25.88;;;16.40;;
23730;SDS011;12046;44.702;10.622;2023-01-28T17:18:14;23.63;;;15.55;;
23730;SDS011;12046;44.702;10.622;2023-01-28T17:20:40;32.08;;;21.95;;
23730;SDS011;12046;44.702;10.622;2023-01-28T17:23:06;46.90;;;31.77;;
23730;SDS011;12046;44.702;10.622;2023-01-28T17:25:35;37.13;;;24.90;;
23730;SDS011;12046;44.702;10.622;2023-01-28T17:28:03;27.85;;;18.95;;
23730;SDS011;12046;44.702;10.622;2023-01-28T17:30:33;26.58;;;18.02;;
23730;SDS011;12046;44.702;10.622;2023-01-28T17:33:02;23.77;;;17.13;;
23730;SDS011;12046;44.702;10.622;2023-01-28T17:35:28;24.30;;;16.73;;
23730;SDS011;12046;44.702;10.622;2023-01-28T17:37:58;26.70;;;16.08;;
23730;SDS011;12046;44.702;10.622;2023-01-28T17:43:53;20.35;;;14.77;;
23730;SDS011;12046;44.702;10.622;2023-01-28T17:46:20;25.23;;;16.33;;
23730;SDS011;12046;44.702;10.622;2023-01-28T17:48:48;23.50;;;15.07;;
23730;SDS011;12046;44.702;10.622;2023-01-28T17:51:14;23.25;;;16.05;;
23730;SDS011;12046;44.702;10.622;2023-01-28T17:53:44;26.58;;;16.35;;
23730;SDS011;12046;44.702;10.622;2023-01-28T17:56:21;25.85;;;16.67;;
23730;SDS011;12046;44.702;10.622;2023-01-28T18:02:43;29.85;;;18.83;;
23730;SDS011;12046;44.702;10.622;2023-01-28T18:05:18;29.90;;;17.95;;
23730;SDS011;12046;44.702;10.622;2023-01-28T18:11:17;24.70;;;16.23;;
23730;SDS011;12046;44.702;10.622;2023-01-28T18:13:44;23.25;;;15.70;;
23730;SDS011;12046;44.702;10.622;2023-01-28T18:16:16;27.98;;;18.02;;
23730;SDS011;12046;44.702;10.622;2023-01-28T18:39:10;19.48;;;14.07;;
23730;SDS011;12046;44.702;10.622;2023-01-28T18:45:29;22.52;;;15.52;;
23730;SDS011;12046;44.702;10.622;2023-01-28T18:52:32;25.25;;;15.18;;
23730;SDS011;12046;44.702;10.622;2023-01-28T18:55:04;22.67;;;15.05;;
23730;SDS011;12046;44.702;10.622;2023-01-28T18:57:30;25.65;;;16.60;;
23730;SDS011;12046;44.702;10.622;2023-01-28T18:59:56;27.13;;;16.55;;
23730;SDS011;12046;44.702;10.622;2023-01-28T19:02:21;30.90;;;17.90;;
23730;SDS011;12046;44.702;10.622;2023-01-28T19:04:47;28.42;;;17.05;;
23730;SDS011;12046;44.702;10.622;2023-01-28T19:07:13;36.42;;;23.13;;
23730;SDS011;12046;44.702;10.622;2023-01-28T19:09:38;41.28;;;26.80;;
23730;SDS011;12046;44.702;10.622;2023-01-28T19:12:04;54.10;;;33.45;;
23730;SDS011;12046;44.702;10.622;2023-01-28T19:14:30;57.72;;;36.60;;
23730;SDS011;12046;44.702;10.622;2023-01-28T19:16:56;31.42;;;20.33;;
23730;SDS011;12046;44.702;10.622;2023-01-28T19:19:22;24.65;;;15.13;;
23730;SDS011;12046;44.702;10.622;2023-01-28T19:21:48;27.50;;;17.88;;
23730;SDS011;12046;44.702;10.622;2023-01-28T19:24:14;26.42;;;17.15;;
23730;SDS011;12046;44.702;10.622;2023-01-28T19:26:40;26.92;;;18.00;;
23730;SDS011;12046;44.702;10.622;2023-01-28T19:29:07;28.98;;;18.33;;
23730;SDS011;12046;44.702;10.622;2023-01-28T19:31:40;27.92;;;18.75;;
23730;SDS011;12046;44.702;10.622;2023-01-28T19:34:06;26.58;;;17.92;;
23730;SDS011;12046;44.702;10.622;2023-01-28T19:36:32;30.27;;;18.90;;
23730;SDS011;12046;44.702;10.622;2023-01-28T19:39:03;29.52;;;18.85;;
23730;SDS011;12046;44.702;10.622;2023-01-28T19:41:52;34.47;;;22.30;;
23730;SDS011;12046;44.702;10.622;2023-01-28T19:44:44;34.95;;;19.63;;
23730;SDS011;12046;44.702;10.622;2023-01-28T19:47:09;30.35;;;18.25;;
23730;SDS011;12046;44.702;10.622;2023-01-28T19:49:35;29.63;;;18.50;;
23730;SDS011;12046;44.702;10.622;2023-01-28T19:52:01;30.02;;;18.00;;
23730;SDS011;12046;44.702;10.622;2023-01-28T19:54:27;27.08;;;16.65;;
23730;SDS011;12046;44.702;10.622;2023-01-28T19:56:53;26.65;;;17.40;;
23730;SDS011;12046;44.702;10.622;2023-01-28T19:59:18;25.85;;;16.08;;
23730;SDS011;12046;44.702;10.622;2023-01-28T20:01:44;28.75;;;17.30;;
23730;SDS011;12046;44.702;10.622;2023-01-28T20:04:10;32.15;;;20.10;;
23730;SDS011;12046;44.702;10.622;2023-01-28T20:06:39;30.02;;;19.80;;
23730;SDS011;12046;44.702;10.622;2023-01-28T20:09:06;28.17;;;18.58;;
23730;SDS011;12046;44.702;10.622;2023-01-28T20:11:38;28.70;;;18.00;;
23730;SDS011;12046;44.702;10.622;2023-01-28T20:14:03;30.63;;;18.45;;
23730;SDS011;12046;44.702;10.622;2023-01-28T20:16:31;33.20;;;21.20;;
23730;SDS011;12046;44.702;10.622;2023-01-28T20:18:59;40.40;;;24.60;;
23730;SDS011;12046;44.702;10.622;2023-01-28T20:21:29;64.53;;;35.20;;
23730;SDS011;12046;44.702;10.622;2023-01-28T20:23:59;39.88;;;23.85;;
23730;SDS011;12046;44.702;10.622;2023-01-28T20:26:29;39.97;;;24.95;;
23730;SDS011;12046;44.702;10.622;2023-01-28T20:29:01;36.17;;;22.02;;
23730;SDS011;12046;44.702;10.622;2023-01-28T20:31:38;33.15;;;22.17;;
23730;SDS011;12046;44.702;10.622;2023-01-28T20:34:06;35.33;;;20.40;;
23730;SDS011;12046;44.702;10.622;2023-01-28T20:36:32;32.92;;;21.55;;
23730;SDS011;12046;44.702;10.622;2023-01-28T20:39:04;33.13;;;22.50;;
23730;SDS011;12046;44.702;10.622;2023-01-28T20:41:30;34.92;;;22.08;;
23730;SDS011;12046;44.702;10.622;2023-01-28T20:51:39;35.63;;;23.23;;
23730;SDS011;12046;44.702;10.622;2023-01-28T20:54:34;39.75;;;25.20;;
23730;SDS011;12046;44.702;10.622;2023-01-28T21:00:40;39.97;;;24.35;;
23730;SDS011;12046;44.702;10.622;2023-01-28T21:06:51;39.53;;;22.73;;
23730;SDS011;12046;44.702;10.622;2023-01-28T21:09:16;40.08;;;23.83;;
23730;SDS011;12046;44.702;10.622;2023-01-28T21:11:42;38.58;;;24.05;;
23730;SDS011;12046;44.702;10.622;2023-01-28T21:14:08;35.17;;;22.27;;
23730;SDS011;12046;44.702;10.622;2023-01-28T21:16:36;37.92;;;21.73;;
23730;SDS011;12046;44.702;10.622;2023-01-28T21:19:06;37.10;;;21.60;;
23730;SDS011;12046;44.702;10.622;2023-01-28T21:21:32;34.42;;;21.10;;
23730;SDS011;12046;44.702;10.622;2023-01-28T21:23:58;33.88;;;19.60;;
23730;SDS011;12046;44.702;10.622;2023-01-28T21:26:24;32.83;;;21.05;;
23730;SDS011;12046;44.702;10.622;2023-01-28T21:28:50;33.55;;;20.48;;
23730;SDS011;12046;44.702;10.622;2023-01-28T21:31:20;35.47;;;21.02;;
23730;SDS011;12046;44.702;10.622;2023-01-28T21:33:48;33.17;;;20.15;;
23730;SDS011;12046;44.702;10.622;2023-01-28T21:36:15;37.10;;;20.98;;
23730;SDS011;12046;44.702;10.622;2023-01-28T21:38:41;36.38;;;20.63;;
23730;SDS011;12046;44.702;10.622;2023-01-28T21:41:08;37.00;;;21.20;;
23730;SDS011;12046;44.702;10.622;2023-01-28T21:43:34;33.22;;;20.35;;
23730;SDS011;12046;44.702;10.622;2023-01-28T21:46:00;30.92;;;20.08;;
23730;SDS011;12046;44.702;10.622;2023-01-28T21:48:26;29.75;;;20.08;;
23730;SDS011;12046;44.702;10.622;2023-01-28T21:50:52;30.75;;;19.33;;
23730;SDS011;12046;44.702;10.622;2023-01-28T21:53:37;27.75;;;18.40;;
23730;SDS011;12046;44.702;10.622;2023-01-28T21:56:05;30.52;;;18.83;;
23730;SDS011;12046;44.702;10.622;2023-01-28T21:58:35;29.52;;;18.45;;
23730;SDS011;12046;44.702;10.622;2023-01-28T22:01:20;27.38;;;17.73;;
23730;SDS011;12046;44.702;10.622;2023-01-28T22:03:46;29.05;;;18.88;;
23730;SDS011;12046;44.702;10.622;2023-01-28T22:06:12;30.25;;;18.75;;
23730;SDS011;12046;44.702;10.622;2023-01-28T22:08:38;28.50;;;18.38;;
